This is the latest recevied weather packets stored in our database for station/object GW1598. If no packets are shown the sender has not sent any weather packets the latest 10 day(s).
| Time | Temp. | Humidity | Pressure | Rain* | Wind** | Luminosity | Snow |
|---|---|---|---|---|---|---|---|
| 1777538721 | 9.44° C | 96% | 1007.1 hPa | 0 mm | - | - | - |
| 1777536207 | 9.44° C | 98% | 1006.7 hPa | 0 mm | - | - | - |
| 1777534412 | 10° C | 98% | 1006.4 hPa | 0 mm | - | - | - |
| 1777529177 | 11.11° C | 98% | 1007.1 hPa | 0 mm | - | - | - |
| 1777525575 | 11.67° C | 98% | 1006.7 hPa | 0 mm | - | - | - |
| 1777523807 | 12.22° C | 98% | 1006.7 hPa | 0 mm | - | - | - |
| 1777522339 | 12.22° C | 98% | 1006.4 hPa | 3.81 mm | - | - | - |
| 1777519854 | 12.22° C | 98% | 1006.4 hPa | 3.81 mm | - | - | - |
| 1777518740 | 12.22° C | 98% | 1006.4 hPa | 3.81 mm | - | - | - |
| 1777518380 | 12.22° C | 98% | 1006.4 hPa | 3.81 mm | - | - | - |
| 1777515868 | 12.22° C | 97% | 1006.4 hPa | 3.81 mm | - | - | - |
| 1777515498 | 12.22° C | 97% | 1006.4 hPa | 3.81 mm | - | - | - |
| 1777515131 | 12.22° C | 97% | 1006 hPa | 3.81 mm | - | - | - |
| 1777512972 | 12.22° C | 96% | 1005.7 hPa | 3.81 mm | - | - | - |
| 1777509942 | 13.89° C | 93% | 1005.7 hPa | 3.81 mm | - | - | - |
| 1777509205 | 14.44° C | 91% | 1005.7 hPa | 3.81 mm | - | - | - |
| 1777508855 | 15° C | 89% | 1005.4 hPa | 3.81 mm | - | - | - |
| 1777500222 | 16.67° C | 93% | 1003 hPa | 3.81 mm | - | - | - |
| 1777496959 | 17.22° C | 94% | 1002 hPa | 3.56 mm | - | - | - |
| 1777495884 | 17.22° C | 93% | 1002 hPa | 3.56 mm | - | - | - |
| 1777495513 | 17.78° C | 95% | 1001.6 hPa | 3.56 mm | - | - | - |
| 1777480774 | 20° C | 82% | 1003.3 hPa | 0 mm | - | - | - |
| 1777475003 | 18.89° C | 90% | 1004 hPa | 0 mm | - | - | - |
| 1777473589 | 18.33° C | 93% | 1004 hPa | 0 mm | - | - | - |
| 1777468160 | 18.33° C | 94% | 1005 hPa | 0 mm | - | - | - |
* Rain since midnight (hover to see other rain measurements)
** Current wind speed in m/s (hover to see current wind gust speed)